Time;durP1;ratioP1;P1;durP2;ratioP2;P2;SDS_P1;SDS_P2;PMS_P1;PMS_P2;Temp;Humidity;BMP_temperature;BMP_pressure;BME280_temperature;BME280_humidity;BME280_pressure;Samples;Min_cycle;Max_cycle;Signal;HPM_P1;HPM_P2
2023/01/14 00:01:46;;;;;;;0.50;0.50;;;6.20;99.90;;;;;;5013610;28;20644;-68
2023/01/14 00:04:11;;;;;;;0.40;0.40;;;6.30;99.90;;;;;;5013685;28;20557;-67
2023/01/14 00:06:37;;;;;;;0.30;0.30;;;6.30;99.90;;;;;;5013393;28;20183;-68
2023/01/14 00:09:09;;;;;;;0.40;0.40;;;6.20;99.90;;;;;;5013659;28;20171;-67
2023/01/14 00:11:47;;;;;;;0.40;0.40;;;6.20;99.90;;;;;;5013651;28;20835;-67
2023/01/14 00:14:27;;;;;;;0.40;0.40;;;6.20;99.90;;;;;;5012138;28;20615;-67
2023/01/14 00:16:53;;;;;;;0.30;0.30;;;6.30;99.90;;;;;;5013422;28;20220;-67
2023/01/14 00:19:20;;;;;;;0.40;0.40;;;6.40;99.90;;;;;;5013385;28;20667;-67
2023/01/14 00:21:46;;;;;;;0.55;0.55;;;6.40;99.90;;;;;;5012142;28;20550;-67
2023/01/14 00:24:14;;;;;;;0.30;0.30;;;6.10;99.90;;;;;;5013151;28;20195;-67
2023/01/14 00:26:42;;;;;;;0.65;0.65;;;6.10;99.90;;;;;;5013335;28;20226;-67
2023/01/14 00:29:17;;;;;;;0.30;0.30;;;6.10;99.90;;;;;;5013208;28;20214;-68
2023/01/14 00:31:43;;;;;;;0.40;0.40;;;6.10;99.90;;;;;;5013221;28;20175;-67
2023/01/14 00:34:09;;;;;;;0.47;0.47;;;6.00;99.90;;;;;;5012862;28;20238;-67
2023/01/14 00:36:35;;;;;;;0.30;0.30;;;6.00;99.90;;;;;;5013316;28;20534;-67
2023/01/14 00:39:02;;;;;;;0.40;0.40;;;6.10;99.90;;;;;;5013310;28;20180;-67
2023/01/14 00:41:28;;;;;;;3.03;2.75;;;6.20;99.90;;;;;;5013166;28;20403;-67
2023/01/14 00:43:56;;;;;;;0.30;0.30;;;6.20;99.90;;;;;;5013038;28;20198;-67
2023/01/14 00:46:30;;;;;;;0.60;0.60;;;6.20;99.90;;;;;;5012983;28;20774;-67
2023/01/14 00:48:58;;;;;;;0.40;0.40;;;6.20;99.90;;;;;;5015723;28;20195;-67
2023/01/14 00:51:24;;;;;;;0.40;0.40;;;6.30;99.90;;;;;;5016573;28;20173;-67
2023/01/14 00:53:49;;;;;;;0.38;0.38;;;6.30;99.90;;;;;;5016533;28;20232;-67
2023/01/14 00:56:18;;;;;;;1.33;1.23;;;6.30;99.90;;;;;;5016149;28;20217;-68
2023/01/14 00:58:44;;;;;;;0.40;0.40;;;6.20;99.90;;;;;;5016623;28;20604;-67
2023/01/14 01:01:10;;;;;;;0.30;0.30;;;6.10;99.90;;;;;;5016601;28;20233;-68
2023/01/14 01:03:41;;;;;;;2.40;0.40;;;6.10;99.90;;;;;;5016391;28;20210;-67
2023/01/14 01:06:07;;;;;;;0.30;0.30;;;6.10;99.90;;;;;;5016265;28;20168;-67
2023/01/14 01:08:33;;;;;;;0.30;0.30;;;6.10;99.90;;;;;;5016284;28;20230;-67
2023/01/14 01:10:58;;;;;;;0.77;0.77;;;6.20;99.90;;;;;;5016183;28;20199;-67
2023/01/14 01:13:24;;;;;;;0.30;0.30;;;6.20;99.90;;;;;;5016177;28;20726;-67
2023/01/14 01:15:51;;;;;;;0.40;0.40;;;6.20;99.90;;;;;;5016414;28;20178;-68
2023/01/14 01:18:18;;;;;;;0.93;0.85;;;6.30;99.90;;;;;;5016218;28;20184;-67
2023/01/14 01:20:44;;;;;;;0.40;0.40;;;6.30;99.90;;;;;;5015992;28;20206;-67
2023/01/14 01:23:12;;;;;;;0.40;0.40;;;6.30;99.90;;;;;;5016126;28;20180;-68
2023/01/14 01:25:37;;;;;;;0.30;0.30;;;6.30;99.90;;;;;;5015676;28;20202;-68
2023/01/14 01:28:03;;;;;;;0.30;0.30;;;6.20;99.90;;;;;;5015870;28;20283;-67
2023/01/14 01:30:29;;;;;;;0.30;0.30;;;6.20;99.90;;;;;;5014534;28;20186;-67
2023/01/14 01:32:55;;;;;;;1.03;0.97;;;6.20;99.90;;;;;;5015799;28;20541;-67
2023/01/14 01:35:22;;;;;;;0.73;0.73;;;6.30;99.90;;;;;;5015301;28;20510;-67
2023/01/14 01:37:48;;;;;;;1.05;1.05;;;6.30;99.90;;;;;;5015672;28;20413;-67
2023/01/14 01:40:14;;;;;;;0.40;0.40;;;6.30;99.90;;;;;;5015615;28;20314;-68
2023/01/14 01:42:55;;;;;;;6.00;1.00;;;6.30;99.90;;;;;;5015964;28;20892;-68
2023/01/14 01:45:40;;;;;;;0.38;0.38;;;6.40;99.90;;;;;;5015409;28;20793;-68
2023/01/14 01:48:40;;;;;;;0.30;0.30;;;6.40;99.90;;;;;;5014425;28;20253;-67
2023/01/14 01:51:19;;;;;;;0.40;0.40;;;6.40;99.90;;;;;;5014235;28;20163;-67
2023/01/14 01:53:48;;;;;;;0.30;0.30;;;6.40;99.90;;;;;;5015563;28;20176;-68
2023/01/14 01:56:21;;;;;;;0.30;0.30;;;6.30;99.90;;;;;;5015076;28;20198;-66
2023/01/14 01:58:48;;;;;;;2.78;1.73;;;6.20;99.90;;;;;;5015500;28;20172;-67
2023/01/14 02:01:14;;;;;;;0.40;0.40;;;6.30;99.90;;;;;;5015218;28;20183;-67
2023/01/14 02:03:45;;;;;;;0.30;0.30;;;6.30;99.90;;;;;;5015258;28;20200;-68
2023/01/14 02:06:12;;;;;;;0.73;0.73;;;6.30;99.90;;;;;;5015100;28;20211;-67
2023/01/14 02:08:42;;;;;;;0.40;0.40;;;6.30;99.90;;;;;;5015233;28;20210;-68
2023/01/14 02:11:38;;;;;;;0.40;0.40;;;6.30;99.90;;;;;;5015200;28;20195;-67
2023/01/14 02:14:18;;;;;;;0.40;0.40;;;6.40;99.90;;;;;;5014844;28;20213;-68
2023/01/14 02:17:05;;;;;;;1.13;1.08;;;6.30;99.90;;;;;;5015227;28;20170;-67
2023/01/14 02:20:14;;;;;;;5.07;1.35;;;6.30;99.90;;;;;;5014922;28;20167;-67
2023/01/14 02:23:01;;;;;;;0.30;0.30;;;6.20;99.90;;;;;;5014839;28;20549;-67
2023/01/14 02:25:59;;;;;;;0.30;0.30;;;6.10;99.90;;;;;;5014532;28;20242;-67
2023/01/14 02:28:59;;;;;;;1.10;0.60;;;6.10;99.90;;;;;;5012573;28;20208;-68
2023/01/14 02:31:46;;;;;;;0.30;0.30;;;6.10;99.90;;;;;;5014857;28;20169;-68
2023/01/14 02:34:45;;;;;;;0.30;0.30;;;6.20;99.90;;;;;;5014463;28;20195;-68
2023/01/14 02:37:19;;;;;;;0.95;0.70;;;6.20;99.90;;;;;;5014814;28;20171;-67
2023/01/14 02:39:59;;;;;;;2.78;2.58;;;6.20;99.90;;;;;;5014754;28;20182;-67
2023/01/14 02:45:37;;;;;;;0.73;0.73;;;6.30;99.90;;;;;;5014315;28;20283;-67
2023/01/14 02:48:05;;;;;;;0.30;0.30;;;6.30;99.90;;;;;;5014498;28;20201;-68
2023/01/14 02:50:32;;;;;;;0.30;0.30;;;6.30;99.90;;;;;;5014549;28;20635;-67
2023/01/14 02:52:58;;;;;;;0.98;0.65;;;6.30;99.90;;;;;;5014325;28;20639;-67
2023/01/14 02:55:35;;;;;;;0.50;0.47;;;6.30;99.90;;;;;;5013946;28;20199;-67
2023/01/14 02:58:33;;;;;;;0.60;0.60;;;6.40;99.90;;;;;;5014798;28;20524;-67
2023/01/14 03:01:14;;;;;;;1.05;1.05;;;6.50;99.90;;;;;;5013095;28;20183;-67
2023/01/14 03:04:02;;;;;;;0.88;0.45;;;6.50;99.90;;;;;;5014244;28;20175;-67
2023/01/14 03:06:29;;;;;;;0.40;0.40;;;6.40;99.90;;;;;;5013883;28;20214;-68
2023/01/14 03:09:15;;;;;;;0.73;0.73;;;6.50;99.90;;;;;;5014130;28;20209;-67
2023/01/14 03:11:57;;;;;;;0.40;0.40;;;6.50;99.90;;;;;;5013799;28;20206;-67
2023/01/14 03:14:38;;;;;;;1.70;1.70;;;6.50;99.90;;;;;;5013975;28;20191;-67
2023/01/14 03:17:30;;;;;;;0.40;0.40;;;6.40;99.90;;;;;;5014217;28;20299;-67
2023/01/14 03:20:04;;;;;;;0.57;0.55;;;6.50;99.90;;;;;;5014216;28;20162;-67
2023/01/14 03:22:32;;;;;;;0.30;0.30;;;6.50;99.90;;;;;;5012682;28;20543;-67
2023/01/14 03:25:00;;;;;;;0.40;0.40;;;6.50;99.90;;;;;;5013700;28;20253;-67
2023/01/14 03:27:30;;;;;;;0.65;0.60;;;6.50;99.90;;;;;;5013927;28;20594;-67
2023/01/14 03:30:03;;;;;;;0.40;0.40;;;6.50;99.90;;;;;;5013743;28;20230;-67
2023/01/14 03:32:39;;;;;;;1.40;1.40;;;6.50;99.90;;;;;;5013732;28;20174;-67
2023/01/14 03:35:27;;;;;;;0.40;0.40;;;6.50;99.90;;;;;;5013644;28;20186;-67
2023/01/14 03:38:03;;;;;;;6.57;2.25;;;6.40;99.90;;;;;;5013799;28;20185;-67
2023/01/14 03:40:31;;;;;;;0.68;0.68;;;6.50;99.90;;;;;;5012563;28;20178;-67
2023/01/14 03:43:04;;;;;;;0.65;0.65;;;6.40;99.90;;;;;;5013613;28;20651;-67
2023/01/14 03:45:35;;;;;;;0.30;0.30;;;6.40;99.90;;;;;;5013629;28;20217;-68
2023/01/14 03:48:01;;;;;;;0.65;0.65;;;6.40;99.90;;;;;;5013770;28;20204;-67
2023/01/14 03:50:34;;;;;;;1.15;1.15;;;6.60;99.90;;;;;;5013705;28;20233;-67
2023/01/14 03:53:28;;;;;;;3.05;1.35;;;6.60;99.90;;;;;;5013732;28;20634;-67
2023/01/14 03:56:16;;;;;;;0.40;0.40;;;6.60;99.90;;;;;;5013290;28;20196;-67
2023/01/14 03:58:57;;;;;;;0.30;0.30;;;6.60;99.90;;;;;;5013648;28;20191;-67
2023/01/14 04:01:43;;;;;;;0.40;0.40;;;6.50;99.90;;;;;;5012417;28;20653;-67
2023/01/14 04:04:11;;;;;;;1.83;1.67;;;6.60;99.90;;;;;;5013270;28;20209;-67
2023/01/14 04:06:37;;;;;;;0.30;0.30;;;6.60;99.90;;;;;;5012298;28;20662;-67
2023/01/14 04:09:06;;;;;;;0.38;0.38;;;6.60;99.90;;;;;;5013385;28;20215;-67
2023/01/14 04:11:31;;;;;;;2.10;1.42;;;6.50;99.90;;;;;;5013427;28;20308;-67
2023/01/14 04:16:41;;;;;;;0.30;0.30;;;6.50;99.90;;;;;;5013623;28;20409;-67
2023/01/14 04:19:07;;;;;;;0.40;0.40;;;6.50;99.90;;;;;;5013435;28;20172;-67
2023/01/14 04:21:33;;;;;;;0.30;0.30;;;6.50;99.90;;;;;;5012219;28;20170;-68
2023/01/14 04:23:58;;;;;;;0.80;0.60;;;6.30;99.90;;;;;;5016962;28;20429;-67
2023/01/14 04:26:24;;;;;;;0.30;0.30;;;6.30;99.90;;;;;;5016922;28;20171;-68
2023/01/14 04:28:50;;;;;;;0.40;0.40;;;6.30;99.90;;;;;;5016924;28;20674;-67
2023/01/14 04:31:15;;;;;;;0.40;0.40;;;6.30;99.90;;;;;;5015769;28;20664;-67
2023/01/14 04:33:41;;;;;;;1.03;1.03;;;6.40;99.90;;;;;;5016932;28;20171;-67
2023/01/14 04:36:07;;;;;;;2.10;0.90;;;6.40;99.90;;;;;;5016814;28;20175;-67
2023/01/14 04:38:32;;;;;;;0.40;0.40;;;6.30;99.90;;;;;;5017009;28;20256;-67
2023/01/14 04:40:58;;;;;;;0.30;0.30;;;6.40;99.90;;;;;;5016928;28;20705;-67
2023/01/14 04:43:24;;;;;;;0.60;0.60;;;6.30;99.90;;;;;;5016736;28;20222;-67
2023/01/14 04:45:54;;;;;;;0.40;0.40;;;6.40;99.90;;;;;;5016457;28;20198;-67
2023/01/14 04:48:21;;;;;;;0.50;0.50;;;6.40;99.90;;;;;;5016537;28;20461;-67
2023/01/14 04:50:50;;;;;;;0.30;0.30;;;6.40;99.90;;;;;;5016793;28;20181;-67
2023/01/14 04:53:18;;;;;;;0.30;0.30;;;6.40;99.90;;;;;;5016814;28;20258;-67
2023/01/14 04:55:45;;;;;;;0.40;0.40;;;6.50;99.90;;;;;;5016120;28;20265;-67
2023/01/14 04:58:13;;;;;;;0.60;0.60;;;6.50;99.90;;;;;;5016526;28;20167;-67
2023/01/14 05:00:39;;;;;;;0.40;0.40;;;6.50;99.90;;;;;;5016548;28;20198;-67
2023/01/14 05:03:06;;;;;;;0.30;0.30;;;6.50;99.90;;;;;;5016589;28;20165;-67
2023/01/14 05:05:33;;;;;;;0.75;0.65;;;6.40;99.90;;;;;;5015972;28;20484;-67
2023/01/14 05:07:59;;;;;;;0.30;0.30;;;6.40;99.90;;;;;;5016368;28;20208;-67
2023/01/14 05:10:25;;;;;;;0.38;0.38;;;6.30;99.90;;;;;;5016221;28;20159;-67
2023/01/14 05:12:58;;;;;;;0.40;0.40;;;6.30;99.90;;;;;;5016233;28;20176;-67
2023/01/14 05:15:31;;;;;;;0.30;0.30;;;6.40;99.90;;;;;;5016264;28;20188;-67
2023/01/14 05:17:57;;;;;;;0.30;0.30;;;6.30;99.90;;;;;;5016261;28;20675;-67
2023/01/14 05:20:23;;;;;;;0.30;0.30;;;6.30;99.90;;;;;;5016270;28;20186;-67
2023/01/14 05:22:50;;;;;;;0.75;0.75;;;6.40;99.90;;;;;;5015923;28;20185;-68
2023/01/14 05:25:16;;;;;;;0.30;0.30;;;6.30;99.90;;;;;;5015704;28;20682;-67
2023/01/14 05:27:41;;;;;;;0.30;0.30;;;6.30;99.90;;;;;;5015857;28;20235;-67
2023/01/14 05:30:08;;;;;;;0.30;0.30;;;6.40;99.90;;;;;;5015880;28;20423;-67
2023/01/14 05:32:33;;;;;;;0.40;0.40;;;6.40;99.90;;;;;;5015509;28;20221;-67
2023/01/14 05:34:59;;;;;;;0.30;0.30;;;6.40;99.90;;;;;;5015491;28;20192;-67
2023/01/14 05:37:25;;;;;;;0.40;0.40;;;6.40;99.90;;;;;;5015685;28;20168;-67
2023/01/14 05:39:50;;;;;;;0.40;0.40;;;6.40;99.90;;;;;;5015713;28;20666;-67
2023/01/14 05:47:45;;;;;;;0.50;0.50;;;6.30;99.90;;;;;;5015691;28;20758;-67
2023/01/14 05:50:12;;;;;;;0.30;0.30;;;6.30;99.90;;;;;;5015709;28;20248;-68
2023/01/14 05:52:38;;;;;;;0.30;0.30;;;6.30;99.90;;;;;;5015470;28;20179;-67
2023/01/14 05:55:04;;;;;;;0.30;0.30;;;6.30;99.90;;;;;;5015190;28;20200;-67
2023/01/14 05:57:30;;;;;;;0.40;0.40;;;6.30;99.90;;;;;;5015242;28;20630;-67
2023/01/14 05:59:56;;;;;;;0.93;0.93;;;6.40;99.90;;;;;;5015275;28;20257;-68
2023/01/14 06:07:52;;;;;;;0.30;0.30;;;6.30;99.90;;;;;;5015314;28;20230;-67
2023/01/14 06:10:17;;;;;;;0.47;0.47;;;6.30;99.90;;;;;;5015395;28;20256;-68
2023/01/14 06:12:58;;;;;;;0.30;0.30;;;6.30;99.90;;;;;;5015220;28;20261;-67
2023/01/14 06:15:36;;;;;;;0.30;0.30;;;6.40;99.90;;;;;;5013600;28;20681;-67
2023/01/14 06:18:38;;;;;;;0.30;0.30;;;6.40;99.90;;;;;;5015134;28;20180;-67
2023/01/14 06:20:54;;;;;;;0.40;0.40;;;6.40;99.90;;;;;;5013826;28;20295;-67
2023/01/14 06:23:21;;;;;;;0.43;0.43;;;6.40;99.90;;;;;;5014875;28;20324;-67
2023/01/14 06:25:48;;;;;;;0.35;0.35;;;6.40;99.90;;;;;;5014669;28;20567;-67
2023/01/14 06:28:15;;;;;;;0.30;0.30;;;6.40;99.90;;;;;;5014751;28;20213;-67
2023/01/14 06:30:42;;;;;;;0.40;0.40;;;6.40;99.90;;;;;;5014625;28;20174;-67
2023/01/14 06:33:08;;;;;;;0.60;0.60;;;6.40;99.90;;;;;;5014871;28;20622;-67
2023/01/14 06:35:39;;;;;;;0.30;0.30;;;6.40;99.90;;;;;;5014412;28;20195;-67
2023/01/14 06:38:05;;;;;;;0.30;0.30;;;6.30;99.90;;;;;;5014657;28;20211;-67
2023/01/14 06:40:30;;;;;;;0.50;0.50;;;6.30;99.90;;;;;;5010081;28;20602;-67
2023/01/14 06:42:56;;;;;;;0.50;0.50;;;6.30;99.90;;;;;;5014676;28;20211;-67
2023/01/14 06:45:22;;;;;;;0.80;0.80;;;6.20;99.90;;;;;;5013615;28;20221;-67
2023/01/14 06:47:48;;;;;;;0.60;0.60;;;6.20;99.90;;;;;;5014603;28;20203;-67
2023/01/14 06:50:17;;;;;;;10.52;0.70;;;6.20;99.90;;;;;;5014569;28;20405;-67
2023/01/14 06:52:43;;;;;;;0.60;0.60;;;6.10;99.90;;;;;;5014425;28;20178;-67
2023/01/14 06:55:09;;;;;;;0.40;0.40;;;6.10;99.90;;;;;;5014143;28;20212;-67
2023/01/14 06:57:34;;;;;;;0.30;0.30;;;6.20;99.90;;;;;;5014309;28;20225;-67
2023/01/14 07:00:00;;;;;;;0.30;0.30;;;6.10;99.90;;;;;;5014394;28;20725;-67
2023/01/14 07:02:26;;;;;;;0.40;0.40;;;6.20;99.90;;;;;;5014425;28;20196;-67
2023/01/14 07:04:51;;;;;;;0.30;0.30;;;6.30;99.90;;;;;;5013754;28;20198;-67
2023/01/14 07:07:18;;;;;;;3.80;1.43;;;6.30;99.90;;;;;;5012850;28;20234;-67
2023/01/14 07:09:44;;;;;;;0.35;0.35;;;6.30;99.90;;;;;;5014145;28;20250;-67
2023/01/14 07:12:10;;;;;;;0.50;0.50;;;6.30;99.90;;;;;;5014314;28;20259;-67
2023/01/14 07:14:35;;;;;;;0.30;0.30;;;6.30;99.90;;;;;;5012644;28;20438;-69
2023/01/14 07:17:02;;;;;;;0.40;0.40;;;6.40;99.90;;;;;;5013269;28;20174;-68
2023/01/14 07:19:27;;;;;;;0.30;0.30;;;6.30;99.90;;;;;;5013999;28;20220;-67
2023/01/14 07:21:53;;;;;;;0.40;0.40;;;6.40;99.90;;;;;;5012911;28;20176;-68
2023/01/14 07:24:19;;;;;;;0.30;0.30;;;6.40;99.90;;;;;;5013808;28;20725;-69
2023/01/14 07:26:44;;;;;;;0.43;0.43;;;6.40;99.90;;;;;;5014252;28;20166;-69
2023/01/14 07:29:10;;;;;;;10.13;3.67;;;6.30;99.90;;;;;;5014265;28;20667;-68
2023/01/14 07:31:36;;;;;;;0.40;0.40;;;6.30;99.90;;;;;;5013994;28;20321;-68
2023/01/14 07:34:01;;;;;;;0.40;0.40;;;6.40;99.90;;;;;;5014289;28;20182;-68
2023/01/14 07:36:27;;;;;;;1.07;1.07;;;6.40;99.90;;;;;;5013037;28;20261;-68
2023/01/14 07:38:53;;;;;;;0.40;0.40;;;6.40;99.90;;;;;;5012535;28;20204;-68
2023/01/14 07:41:20;;;;;;;0.40;0.40;;;6.40;99.90;;;;;;5012931;28;20206;-68
2023/01/14 07:43:46;;;;;;;3.13;1.58;;;6.40;99.90;;;;;;5014031;28;20416;-68
2023/01/14 07:46:12;;;;;;;0.30;0.30;;;6.40;99.90;;;;;;5014175;28;20628;-69
2023/01/14 07:48:38;;;;;;;1.13;1.13;;;6.50;99.90;;;;;;5013599;28;20198;-69
2023/01/14 07:51:05;;;;;;;0.60;0.60;;;6.60;99.90;;;;;;5013818;28;20413;-69
2023/01/14 07:53:32;;;;;;;1.38;1.05;;;6.60;99.90;;;;;;5013814;28;20416;-69
2023/01/14 07:56:03;;;;;;;0.30;0.30;;;6.70;99.90;;;;;;5014300;28;20183;-68
2023/01/14 07:58:29;;;;;;;0.30;0.30;;;6.70;99.90;;;;;;5018031;28;20167;-69
2023/01/14 08:00:57;;;;;;;0.77;0.77;;;6.70;99.90;;;;;;5017710;28;20182;-69
2023/01/14 08:03:24;;;;;;;0.30;0.30;;;6.80;99.90;;;;;;5017682;28;20170;-69
2023/01/14 08:05:51;;;;;;;1.17;0.93;;;6.90;99.90;;;;;;5017478;28;20277;-69
2023/01/14 08:08:18;;;;;;;2.15;2.05;;;6.90;99.90;;;;;;5017733;28;20206;-69
2023/01/14 08:10:44;;;;;;;0.30;0.30;;;7.00;99.90;;;;;;5017826;28;20181;-69
2023/01/14 08:13:13;;;;;;;1.63;1.60;;;7.10;99.90;;;;;;5017986;28;20164;-68
2023/01/14 08:15:39;;;;;;;0.85;0.47;;;7.20;99.90;;;;;;5017296;28;20186;-67
2023/01/14 08:18:05;;;;;;;3.70;1.23;;;7.20;99.90;;;;;;5017389;28;20205;-67
2023/01/14 08:20:30;;;;;;;1.53;1.53;;;7.10;99.90;;;;;;5015950;28;20183;-69
2023/01/14 08:22:59;;;;;;;2.00;1.37;;;7.20;99.90;;;;;;5017127;28;20178;-67
2023/01/14 08:25:26;;;;;;;0.50;0.50;;;7.20;99.90;;;;;;5015120;28;20481;-67
2023/01/14 08:27:51;;;;;;;0.50;0.50;;;7.10;99.90;;;;;;5016447;28;20568;-67
2023/01/14 08:30:17;;;;;;;0.70;0.70;;;7.10;99.90;;;;;;5014908;28;20183;-67
2023/01/14 08:32:43;;;;;;;1.20;1.10;;;7.10;99.90;;;;;;5015937;28;20175;-67
2023/01/14 08:35:09;;;;;;;0.80;0.80;;;7.10;99.90;;;;;;5012691;28;20195;-67
2023/01/14 08:37:35;;;;;;;0.50;0.50;;;7.20;99.90;;;;;;5015892;28;20203;-67
2023/01/14 08:40:01;;;;;;;0.30;0.30;;;7.20;99.90;;;;;;5015928;28;20186;-67
2023/01/14 08:42:27;;;;;;;0.38;0.38;;;7.20;99.90;;;;;;5015836;28;20183;-67
2023/01/14 08:44:53;;;;;;;0.50;0.50;;;7.20;99.90;;;;;;5016394;28;20211;-67
2023/01/14 08:47:19;;;;;;;1.10;1.00;;;7.30;99.90;;;;;;5016085;28;20303;-67
2023/01/14 08:49:44;;;;;;;0.40;0.40;;;7.20;99.90;;;;;;5015016;28;20723;-67
2023/01/14 08:52:10;;;;;;;0.70;0.70;;;7.30;99.90;;;;;;5017046;28;20179;-67
2023/01/14 08:54:35;;;;;;;0.40;0.40;;;7.40;99.90;;;;;;5016464;28;20183;-67
2023/01/14 08:57:01;;;;;;;0.60;0.60;;;7.50;99.90;;;;;;5014655;28;20192;-68
2023/01/14 08:59:27;;;;;;;1.83;1.23;;;7.70;99.90;;;;;;5016735;28;20301;-69
2023/01/14 09:01:53;;;;;;;0.50;0.50;;;7.90;99.90;;;;;;5015501;28;20206;-69
2023/01/14 09:04:18;;;;;;;1.70;1.60;;;8.00;99.90;;;;;;5015414;28;20199;-68
2023/01/14 09:17:43;;;;;;;1.05;1.05;;;8.80;99.90;;;;;;5016803;28;20182;-70
2023/01/14 09:20:12;;;;;;;0.68;0.68;;;9.20;99.90;;;;;;5016775;28;20509;-68
2023/01/14 09:22:38;;;;;;;0.80;0.80;;;9.50;99.90;;;;;;5014800;28;20695;-69
2023/01/14 09:25:05;;;;;;;0.52;0.52;;;9.70;99.40;;;;;;5015637;28;20601;-68
2023/01/14 09:27:31;;;;;;;1.40;1.40;;;10.00;98.50;;;;;;5015852;28;20254;-68
2023/01/14 09:29:57;;;;;;;0.50;0.50;;;10.30;98.40;;;;;;5016420;28;20411;-70
2023/01/14 09:32:23;;;;;;;1.03;1.03;;;10.60;97.50;;;;;;5015864;28;20418;-71
2023/01/14 09:34:50;;;;;;;2.37;1.27;;;10.80;97.00;;;;;;5015868;28;20427;-69
2023/01/14 09:37:19;;;;;;;2.23;2.00;;;10.70;96.50;;;;;;5014680;28;20419;-71
2023/01/14 09:39:45;;;;;;;1.80;1.57;;;10.80;96.60;;;;;;5015095;28;20884;-69
2023/01/14 09:42:24;;;;;;;1.33;1.23;;;11.10;96.40;;;;;;5013723;28;20417;-69
2023/01/14 09:45:09;;;;;;;1.13;1.13;;;11.30;95.90;;;;;;5013544;28;20583;-70
2023/01/14 09:47:35;;;;;;;3.73;1.47;;;11.40;95.90;;;;;;5013552;28;20494;-70
2023/01/14 09:50:05;;;;;;;4.73;1.17;;;11.50;96.10;;;;;;5013542;28;20556;-69
2023/01/14 09:53:06;;;;;;;1.07;0.70;;;11.80;95.40;;;;;;5012807;28;20877;-71
2023/01/14 09:55:48;;;;;;;2.13;1.93;;;12.00;94.60;;;;;;5015077;28;20445;-69
2023/01/14 09:58:34;;;;;;;1.93;1.83;;;12.00;94.10;;;;;;5013097;28;20391;-70
2023/01/14 10:01:03;;;;;;;4.07;1.47;;;11.90;93.60;;;;;;5014251;28;20406;-71
2023/01/14 10:03:44;;;;;;;0.50;0.50;;;11.70;93.60;;;;;;5013652;28;20410;-70
2023/01/14 10:06:15;;;;;;;0.70;0.70;;;11.30;93.80;;;;;;5014268;28;20398;-71
2023/01/14 10:09:13;;;;;;;1.40;1.20;;;11.00;94.60;;;;;;5015298;28;20761;-71
2023/01/14 10:11:42;;;;;;;0.73;0.73;;;10.90;94.90;;;;;;5013258;28;20402;-71
2023/01/14 10:14:17;;;;;;;0.97;0.97;;;10.80;95.00;;;;;;5014963;28;20577;-71
2023/01/14 10:16:47;;;;;;;3.20;1.17;;;10.80;95.30;;;;;;5014617;28;20406;-71
2023/01/14 10:19:15;;;;;;;0.67;0.67;;;10.80;94.90;;;;;;5012873;28;20403;-70
2023/01/14 10:21:47;;;;;;;1.23;1.13;;;10.80;94.20;;;;;;5014684;28;20745;-71
2023/01/14 10:24:17;;;;;;;0.67;0.67;;;10.60;95.30;;;;;;5015359;28;20254;-71
2023/01/14 10:26:50;;;;;;;0.30;0.30;;;10.40;96.10;;;;;;5014714;28;20417;-71
2023/01/14 10:29:19;;;;;;;0.40;0.40;;;10.40;96.00;;;;;;5014851;28;20262;-71
2023/01/14 10:31:59;;;;;;;0.40;0.40;;;10.40;95.30;;;;;;5013742;28;20474;-68
2023/01/14 10:34:41;;;;;;;0.30;0.30;;;10.40;96.20;;;;;;5013383;28;20435;-69
2023/01/14 10:37:08;;;;;;;3.10;0.97;;;10.60;94.50;;;;;;5014173;28;20250;-70
2023/01/14 10:39:34;;;;;;;0.40;0.40;;;10.60;93.60;;;;;;5014637;28;20521;-68
2023/01/14 10:42:01;;;;;;;0.30;0.30;;;10.60;93.60;;;;;;5013366;28;20419;-68
2023/01/14 10:44:39;;;;;;;1.33;1.23;;;10.60;93.70;;;;;;5014401;28;20518;-68
2023/01/14 10:47:10;;;;;;;0.40;0.40;;;10.60;93.20;;;;;;5014782;28;20469;-70
2023/01/14 10:49:42;;;;;;;0.30;0.30;;;10.50;95.30;;;;;;5014602;28;20625;-70
2023/01/14 10:52:32;;;;;;;0.30;0.30;;;10.30;95.90;;;;;;5014420;28;20578;-67
2023/01/14 10:55:21;;;;;;;0.30;0.30;;;10.30;96.20;;;;;;5014184;28;20426;-69
2023/01/14 10:58:15;;;;;;;0.30;0.30;;;10.10;96.40;;;;;;5014508;28;20415;-68
2023/01/14 11:00:44;;;;;;;0.30;0.30;;;10.10;96.80;;;;;;5013173;28;20190;-70
2023/01/14 11:03:26;;;;;;;0.30;0.30;;;9.90;97.50;;;;;;5014200;28;20191;-68
2023/01/14 11:06:05;;;;;;;0.30;0.30;;;9.80;97.30;;;;;;5012667;28;20617;-67
2023/01/14 11:08:52;;;;;;;0.40;0.40;;;9.90;97.20;;;;;;5013818;28;20458;-68
2023/01/14 11:11:26;;;;;;;0.30;0.30;;;10.10;96.60;;;;;;5014459;28;20896;-71
2023/01/14 11:13:54;;;;;;;0.30;0.30;;;10.20;96.00;;;;;;5012240;28;20832;-70
2023/01/14 11:16:27;;;;;;;0.30;0.30;;;10.20;96.20;;;;;;5012571;28;20617;-70
2023/01/14 11:19:00;;;;;;;0.30;0.30;;;10.30;95.10;;;;;;5014069;28;20693;-68
2023/01/14 11:21:39;;;;;;;0.30;0.30;;;10.30;94.60;;;;;;5014064;28;20196;-70
2023/01/14 11:24:29;;;;;;;0.30;0.30;;;10.30;94.90;;;;;;5013267;28;20588;-71
2023/01/14 11:27:22;;;;;;;0.30;0.30;;;10.30;94.60;;;;;;5013119;28;20175;-69
2023/01/14 11:29:58;;;;;;;0.30;0.30;;;10.40;94.40;;;;;;5013186;28;20790;-70
2023/01/14 11:32:35;;;;;;;0.30;0.30;;;10.50;94.10;;;;;;5013590;28;20178;-70
2023/01/14 11:35:03;;;;;;;0.30;0.30;;;10.70;93.80;;;;;;5013715;28;20195;-70
2023/01/14 11:37:31;;;;;;;0.40;0.40;;;10.90;93.90;;;;;;5013901;28;20407;-69
2023/01/14 11:39:59;;;;;;;0.30;0.30;;;10.90;92.60;;;;;;5012400;28;20931;-69
2023/01/14 11:42:38;;;;;;;0.30;0.30;;;11.00;92.60;;;;;;5013748;28;20402;-70
2023/01/14 11:45:10;;;;;;;2.10;0.50;;;10.90;94.20;;;;;;5013493;28;20785;-69
2023/01/14 11:47:50;;;;;;;0.40;0.40;;;10.80;94.40;;;;;;5013689;28;20446;-69
2023/01/14 11:50:33;;;;;;;0.60;0.60;;;10.70;95.30;;;;;;5013802;28;20394;-70
2023/01/14 11:53:15;;;;;;;0.60;0.60;;;10.60;94.10;;;;;;5014003;28;20792;-69
2023/01/14 11:55:42;;;;;;;0.30;0.30;;;10.50;95.00;;;;;;5013378;28;20470;-71
2023/01/14 11:58:18;;;;;;;0.30;0.30;;;10.30;95.90;;;;;;5013729;28;20421;-68
2023/01/14 12:00:54;;;;;;;0.30;0.30;;;10.20;96.60;;;;;;5012361;28;20417;-70
2023/01/14 12:03:46;;;;;;;0.40;0.40;;;10.10;97.10;;;;;;5013522;28;20179;-71
2023/01/14 12:06:23;;;;;;;0.30;0.30;;;10.10;97.10;;;;;;5013326;28;20175;-71
2023/01/14 12:08:56;;;;;;;0.83;0.83;;;10.20;96.90;;;;;;5014113;28;20256;-71
2023/01/14 12:11:30;;;;;;;0.70;0.60;;;10.10;97.10;;;;;;5012024;28;20418;-70
2023/01/14 12:17:05;;;;;;;0.40;0.40;;;10.10;96.90;;;;;;5013811;28;20402;-71
2023/01/14 12:19:40;;;;;;;0.40;0.40;;;10.10;96.70;;;;;;5011704;28;20170;-71
2023/01/14 12:22:26;;;;;;;0.30;0.30;;;10.10;95.40;;;;;;5013520;28;20868;-71
2023/01/14 12:25:19;;;;;;;0.30;0.30;;;10.00;95.80;;;;;;5013396;28;20461;-71
2023/01/14 12:28:15;;;;;;;0.30;0.30;;;9.90;97.10;;;;;;5013872;28;20551;-71
2023/01/14 12:30:50;;;;;;;0.30;0.30;;;10.00;96.30;;;;;;5010552;28;20187;-71
2023/01/14 12:33:29;;;;;;;0.30;0.30;;;10.00;96.80;;;;;;5012513;28;20733;-71
2023/01/14 12:36:17;;;;;;;0.30;0.30;;;10.00;97.40;;;;;;5013113;28;20192;-71
2023/01/14 12:47:41;;;;;;;0.30;0.30;;;10.00;98.40;;;;;;5016619;28;20210;-70
2023/01/14 12:50:12;;;;;;;0.30;0.30;;;9.90;98.90;;;;;;5016628;28;20539;-69
2023/01/14 12:52:49;;;;;;;0.30;0.30;;;9.80;99.40;;;;;;5016817;28;20168;-70
2023/01/14 12:55:32;;;;;;;0.30;0.30;;;9.70;99.90;;;;;;5016615;28;20191;-70
2023/01/14 12:57:59;;;;;;;0.30;0.30;;;9.60;99.90;;;;;;5016898;28;20230;-72
2023/01/14 13:00:31;;;;;;;0.40;0.40;;;9.50;99.90;;;;;;5017036;28;20606;-70
2023/01/14 13:03:02;;;;;;;0.40;0.40;;;9.60;99.90;;;;;;5016940;28;20266;-71
2023/01/14 13:05:34;;;;;;;0.40;0.40;;;9.70;99.90;;;;;;5016316;28;20282;-70
2023/01/14 13:08:07;;;;;;;0.30;0.30;;;9.80;99.90;;;;;;5016438;28;20207;-72
2023/01/14 13:10:38;;;;;;;0.30;0.30;;;9.80;99.70;;;;;;5016930;28;20250;-71
2023/01/14 13:13:18;;;;;;;0.30;0.30;;;9.70;99.50;;;;;;5016808;28;20652;-71
2023/01/14 13:15:44;;;;;;;0.30;0.30;;;9.50;99.40;;;;;;5016048;28;20191;-70
2023/01/14 13:18:33;;;;;;;0.40;0.40;;;9.40;99.50;;;;;;5016789;28;20633;-71
2023/01/14 13:20:59;;;;;;;0.30;0.30;;;9.30;99.60;;;;;;5013457;28;20430;-72
2023/01/14 13:23:48;;;;;;;0.30;0.30;;;9.30;99.60;;;;;;5016607;28;20517;-71
2023/01/14 13:26:19;;;;;;;0.40;0.40;;;9.20;99.30;;;;;;5012908;28;20195;-70
2023/01/14 13:29:04;;;;;;;0.30;0.30;;;9.10;99.10;;;;;;5016541;28;20207;-70
2023/01/14 13:31:35;;;;;;;0.30;0.30;;;9.10;99.20;;;;;;5016405;28;20174;-69
2023/01/14 13:34:22;;;;;;;0.40;0.40;;;9.00;99.30;;;;;;5015935;28;20305;-71
2023/01/14 13:37:08;;;;;;;0.30;0.30;;;8.80;99.20;;;;;;5015976;28;20164;-72
2023/01/14 13:39:34;;;;;;;3.53;0.80;;;8.80;99.40;;;;;;5016044;28;20176;-71
2023/01/14 13:42:13;;;;;;;0.30;0.30;;;8.80;99.20;;;;;;5016217;28;20180;-69
2023/01/14 13:44:45;;;;;;;1.25;1.25;;;8.70;99.20;;;;;;5015667;28;20187;-71
2023/01/14 13:47:32;;;;;;;0.30;0.30;;;8.70;99.10;;;;;;5015813;28;20207;-71
2023/01/14 13:50:00;;;;;;;0.32;0.32;;;8.80;98.90;;;;;;5015920;28;20152;-70
2023/01/14 13:52:29;;;;;;;0.30;0.30;;;8.80;99.10;;;;;;5015736;28;20175;-69
2023/01/14 13:55:00;;;;;;;0.30;0.30;;;8.90;98.60;;;;;;5015299;28;20201;-72
2023/01/14 13:57:36;;;;;;;0.30;0.30;;;8.80;98.40;;;;;;5015852;28;20195;-70
2023/01/14 14:00:27;;;;;;;0.57;0.45;;;8.90;98.70;;;;;;5015742;28;20210;-69